createdAt,value
2018-01-10T00:02:02.661Z,5.8
2018-01-10T00:07:03.262Z,5.8
2018-01-10T00:12:03.197Z,5.7
2018-01-10T00:17:02.979Z,5.8
2018-01-10T00:22:02.986Z,5.8
2018-01-10T00:27:02.811Z,5.8
2018-01-10T00:32:03.157Z,5.8
2018-01-10T00:37:03.057Z,5.9
2018-01-10T00:42:03.585Z,5.9
2018-01-10T00:47:03.424Z,5.9
2018-01-10T00:52:02.737Z,5.9
2018-01-10T00:57:03.319Z,5.9
2018-01-10T01:02:02.778Z,5.8
2018-01-10T01:07:03.390Z,5.8
2018-01-10T01:12:03.138Z,5.8
2018-01-10T01:17:02.967Z,5.8
2018-01-10T01:22:02.819Z,5.8
2018-01-10T01:27:03.362Z,5.7
2018-01-10T01:32:02.899Z,5.7
2018-01-10T01:37:03.030Z,5.5
2018-01-10T01:42:03.533Z,5.4
2018-01-10T01:47:13.865Z,5.4
2018-01-10T01:52:03.327Z,5.4
2018-01-10T01:57:03.019Z,5.3
2018-01-10T02:02:02.883Z,5.3
2018-01-10T02:07:03.430Z,5.3
2018-01-10T02:12:03.012Z,5.4
2018-01-10T02:17:03.647Z,5.2
2018-01-10T02:22:03.527Z,5.2
2018-01-10T02:27:03.282Z,5.2
2018-01-10T02:32:02.928Z,5.2
2018-01-10T02:37:02.794Z,5.2
2018-01-10T02:42:03.416Z,5.3
2018-01-10T02:47:03.250Z,5.2
2018-01-10T02:52:02.933Z,5.3
2018-01-10T02:57:03.002Z,5.2
2018-01-10T03:02:03.237Z,5.2
2018-01-10T03:07:03.437Z,5.2
2018-01-10T03:12:03.243Z,5.2
2018-01-10T03:17:02.964Z,5.2
2018-01-10T03:22:03.185Z,5.0
2018-01-10T03:27:02.888Z,4.9
2018-01-10T03:32:02.837Z,4.7
2018-01-10T03:37:03.091Z,4.6
2018-01-10T03:42:03.262Z,4.6
2018-01-10T03:47:03.273Z,4.6
2018-01-10T03:52:03.292Z,4.6
2018-01-10T03:57:03.407Z,4.6
2018-01-10T04:02:03.626Z,4.6
2018-01-10T04:07:02.886Z,4.6
2018-01-10T04:12:03.134Z,4.6
2018-01-10T04:17:03.791Z,4.6
2018-01-10T04:22:02.650Z,4.6
2018-01-10T04:27:03.327Z,4.6
2018-01-10T04:32:03.487Z,4.6
2018-01-10T04:37:02.857Z,4.6
2018-01-10T04:42:03.101Z,4.7
2018-01-10T04:47:03.574Z,4.7
2018-01-10T04:52:03.445Z,4.7
2018-01-10T04:57:02.807Z,4.7
2018-01-10T05:02:03.130Z,4.6
2018-01-10T05:07:03.469Z,4.6
2018-01-10T05:12:02.871Z,4.6
2018-01-10T05:17:03.127Z,4.2
2018-01-10T05:22:03.493Z,4.1
2018-01-10T05:27:02.996Z,4.2
2018-01-10T05:32:02.975Z,4.1
2018-01-10T05:37:03.080Z,4.2
2018-01-10T05:42:03.239Z,4.1
2018-01-10T05:47:03.173Z,4.1
2018-01-10T05:52:02.860Z,4.0
2018-01-10T05:57:02.890Z,4.2
2018-01-10T06:02:03.444Z,4.3
2018-01-10T06:07:03.550Z,4.4
2018-01-10T06:12:02.944Z,4.4
2018-01-10T06:17:03.966Z,4.5
2018-01-10T06:22:02.895Z,4.4
2018-01-10T06:27:03.183Z,4.4
2018-01-10T06:32:03.404Z,4.4
2018-01-10T06:37:02.821Z,4.4
2018-01-10T06:42:03.267Z,4.4
2018-01-10T06:47:10.602Z,4.4
2018-01-10T06:52:03.444Z,4.4
2018-01-10T06:57:03.538Z,4.5
2018-01-10T07:02:17.087Z,4.5
2018-01-10T07:07:03.530Z,4.5
2018-01-10T07:12:03.582Z,4.5
2018-01-10T07:17:13.565Z,4.6
2018-01-10T07:22:02.878Z,4.6
2018-01-10T07:27:02.878Z,4.6
2018-01-10T07:32:13.909Z,4.6
2018-01-10T07:37:03.417Z,4.7
2018-01-10T07:42:03.211Z,4.8
2018-01-10T07:47:13.259Z,4.7
2018-01-10T07:52:02.905Z,4.9
2018-01-10T07:57:03.617Z,5.0
2018-01-10T08:02:13.595Z,5.2
2018-01-10T08:07:03.165Z,5.6
2018-01-10T08:12:03.218Z,5.9
2018-01-10T08:17:13.416Z,5.8
2018-01-10T08:22:02.982Z,6.2
2018-01-10T08:27:03.302Z,6.4
2018-01-10T08:32:13.469Z,6.5
2018-01-10T08:37:03.073Z,6.5
2018-01-10T08:42:02.883Z,6.9
2018-01-10T08:47:13.108Z,6.9
2018-01-10T08:52:03.588Z,7.1
2018-01-10T08:57:03.374Z,7.3
2018-01-10T09:02:13.262Z,7.5
2018-01-10T09:07:02.959Z,7.7
2018-01-10T09:12:03.043Z,7.7
2018-01-10T09:17:13.867Z,7.7
2018-01-10T09:22:02.850Z,7.6
2018-01-10T09:27:03.723Z,7.6
2018-01-10T09:32:17.805Z,7.6
2018-01-10T09:37:02.769Z,8.0
2018-01-10T09:42:03.626Z,7.9
2018-01-10T09:47:13.387Z,8.3
2018-01-10T09:52:03.560Z,8.5
2018-01-10T09:57:03.355Z,8.5
2018-01-10T10:02:13.030Z,8.4
2018-01-10T10:07:03.094Z,8.5
2018-01-10T10:12:03.105Z,8.7
2018-01-10T10:17:13.308Z,8.6
2018-01-10T10:22:02.977Z,8.9
2018-01-10T10:27:02.901Z,9.0
2018-01-10T10:32:13.176Z,9.1
2018-01-10T10:37:03.114Z,9.2
2018-01-10T10:42:03.413Z,9.5
2018-01-10T10:47:13.846Z,9.5
2018-01-10T10:52:03.171Z,9.8
2018-01-10T10:57:03.492Z,9.8
2018-01-10T11:02:13.715Z,9.9
2018-01-10T11:07:03.442Z,10.1
2018-01-10T11:12:03.690Z,10.2
2018-01-10T11:17:13.904Z,10.7
2018-01-10T11:22:03.371Z,11.0
2018-01-10T11:27:03.292Z,11.2
2018-01-10T11:32:13.525Z,11.4
2018-01-10T11:37:02.926Z,11.4
2018-01-10T11:42:02.884Z,11.8
2018-01-10T11:47:14.081Z,11.9
2018-01-10T11:52:03.493Z,11.9
2018-01-10T11:57:03.251Z,11.6
2018-01-10T12:02:13.516Z,11.7
2018-01-10T12:07:03.214Z,11.7
2018-01-10T12:12:03.030Z,11.9
2018-01-10T12:17:14.305Z,12.0
2018-01-10T12:22:03.382Z,12.2
2018-01-10T12:27:03.210Z,12.5
2018-01-10T12:32:17.424Z,12.5
2018-01-10T12:37:03.021Z,12.7
2018-01-10T12:42:02.818Z,12.9
2018-01-10T12:47:13.286Z,13.1
2018-01-10T12:52:02.740Z,12.9
2018-01-10T12:57:03.392Z,12.8
2018-01-10T13:02:12.641Z,12.5
2018-01-10T13:07:03.264Z,12.2
2018-01-10T13:12:03.235Z,11.9
2018-01-10T13:17:13.461Z,11.7
2018-01-10T13:22:03.054Z,11.7
2018-01-10T13:27:02.895Z,11.8
2018-01-10T13:32:13.976Z,11.7
2018-01-10T13:37:03.393Z,11.8
2018-01-10T13:42:03.031Z,11.7
2018-01-10T13:47:13.310Z,11.7
2018-01-10T13:52:02.796Z,11.7
2018-01-10T13:57:03.422Z,11.6
2018-01-10T14:02:13.453Z,11.6
2018-01-10T14:07:03.108Z,11.5
2018-01-10T14:12:02.958Z,11.4
2018-01-10T14:17:14.131Z,11.4
2018-01-10T14:22:03.356Z,11.3
2018-01-10T14:27:03.113Z,11.1
2018-01-10T14:32:13.297Z,11.0
2018-01-10T14:37:02.698Z,11.0
2018-01-10T14:42:03.570Z,10.7
2018-01-10T14:47:13.563Z,10.7
2018-01-10T14:52:02.954Z,10.5
2018-01-10T14:57:02.759Z,10.4
2018-01-10T15:02:14.030Z,10.1
2018-01-10T15:07:03.407Z,10.1
2018-01-10T15:12:03.436Z,9.9
2018-01-10T15:17:13.807Z,9.8
2018-01-10T15:22:03.157Z,9.8
2018-01-10T15:27:03.175Z,9.7
2018-01-10T15:32:13.616Z,9.6
2018-01-10T15:37:03.296Z,9.6
2018-01-10T15:42:02.935Z,9.4
2018-01-10T15:47:13.548Z,9.4
2018-01-10T15:52:03.328Z,9.4
2018-01-10T15:57:02.861Z,9.4
2018-01-10T16:02:13.731Z,9.3
2018-01-10T16:07:03.411Z,9.3
2018-01-10T16:12:03.379Z,9.3
2018-01-10T16:17:17.448Z,9.2
2018-01-10T16:22:03.239Z,9.2
2018-01-10T16:27:03.582Z,9.2
2018-01-10T16:32:03.427Z,9.1
2018-01-10T16:37:03.344Z,9.0
2018-01-10T16:42:03.327Z,8.9
2018-01-10T16:47:03.702Z,8.9
2018-01-10T16:52:02.904Z,9.0
2018-01-10T16:57:03.078Z,8.9
2018-01-10T17:02:03.295Z,8.8
2018-01-10T17:07:03.620Z,8.7
2018-01-10T17:12:02.759Z,8.8
2018-01-10T17:17:03.509Z,8.5
2018-01-10T17:22:02.740Z,8.5
2018-01-10T17:27:03.014Z,8.5
2018-01-10T17:32:03.076Z,8.5
2018-01-10T17:37:03.283Z,8.4
2018-01-10T17:42:03.316Z,8.3
2018-01-10T17:47:03.035Z,8.3
2018-01-10T17:52:03.042Z,8.1
2018-01-10T17:57:03.265Z,8.1
2018-01-10T18:02:03.446Z,8.0
2018-01-10T18:07:03.581Z,8.0
2018-01-10T18:12:03.043Z,8.0
2018-01-10T18:17:03.693Z,8.1
2018-01-10T18:22:03.317Z,8.2
2018-01-10T18:27:03.364Z,8.2
2018-01-10T18:32:03.545Z,8.2
2018-01-10T18:37:03.670Z,8.2
2018-01-10T18:42:02.758Z,8.3
2018-01-10T18:47:02.991Z,8.2
2018-01-10T18:52:03.107Z,8.3
2018-01-10T18:57:02.693Z,8.3
2018-01-10T19:02:02.899Z,8.2
2018-01-10T19:07:03.283Z,8.2
2018-01-10T19:12:03.133Z,8.1
2018-01-10T19:17:03.296Z,8.0
2018-01-10T19:22:03.452Z,8.0
2018-01-10T19:27:03.525Z,8.0
2018-01-10T19:32:03.152Z,8.0
2018-01-10T19:37:03.390Z,8.0
2018-01-10T19:42:03.489Z,8.1
2018-01-10T19:47:03.027Z,8.2
2018-01-10T19:52:03.224Z,8.2
2018-01-10T19:57:03.197Z,8.2
2018-01-10T20:02:03.408Z,8.2
2018-01-10T20:07:02.755Z,8.1
2018-01-10T20:12:02.925Z,8.0
2018-01-10T20:17:03.231Z,8.1
2018-01-10T20:22:03.257Z,7.9
2018-01-10T20:27:03.327Z,7.8
2018-01-10T20:32:03.751Z,7.6
2018-01-10T20:37:03.565Z,7.6
2018-01-10T20:42:02.921Z,7.6
2018-01-10T20:47:03.083Z,7.6
2018-01-10T20:52:03.195Z,7.6
2018-01-10T20:57:03.293Z,7.6
2018-01-10T21:02:03.306Z,7.3
2018-01-10T21:07:03.550Z,7.0
2018-01-10T21:12:02.834Z,6.9
2018-01-10T21:17:03.214Z,6.8
2018-01-10T21:22:03.205Z,6.7
2018-01-10T21:27:03.195Z,6.7
2018-01-10T21:32:03.384Z,6.6
2018-01-10T21:37:03.338Z,6.6
2018-01-10T21:42:03.417Z,6.5
2018-01-10T21:47:03.508Z,6.5
2018-01-10T21:52:03.121Z,6.4
2018-01-10T21:57:03.110Z,6.3
2018-01-10T22:02:03.254Z,6.1
2018-01-10T22:07:03.344Z,5.8
2018-01-10T22:12:03.456Z,5.8
2018-01-10T22:17:03.569Z,5.6
2018-01-10T22:22:03.656Z,5.5
2018-01-10T22:27:02.808Z,5.5
2018-01-10T22:32:02.899Z,5.4
2018-01-10T22:37:03.313Z,5.4
2018-01-10T22:42:03.374Z,5.2
2018-01-10T22:47:03.588Z,4.9
2018-01-10T22:52:03.481Z,4.9
2018-01-10T22:57:02.733Z,4.8
2018-01-10T23:02:03.293Z,4.8
2018-01-10T23:07:03.520Z,4.8
2018-01-10T23:12:03.362Z,4.6
2018-01-10T23:22:03.674Z,4.3
2018-01-10T23:27:03.365Z,4.2
2018-01-10T23:32:03.419Z,4.2
2018-01-10T23:37:03.145Z,4.2
2018-01-10T23:42:03.128Z,4.1
2018-01-10T23:47:03.165Z,4.2
2018-01-10T23:52:02.830Z,4.3
2018-01-10T23:57:02.932Z,4.2
